sensor_id;sensor_type;location;lat;lon;timestamp;P1;durP1;ratioP1;P2;durP2;ratioP2
47239;SDS011;32978;53.586;10.052;2023-03-01T00:01:12;27.70;;;16.55;;
47239;SDS011;32978;53.586;10.052;2023-03-01T00:06:10;28.52;;;16.02;;
47239;SDS011;32978;53.586;10.052;2023-03-01T00:11:14;26.58;;;16.45;;
47239;SDS011;32978;53.586;10.052;2023-03-01T00:16:15;25.00;;;15.50;;
47239;SDS011;32978;53.586;10.052;2023-03-01T00:21:23;29.88;;;15.93;;
47239;SDS011;32978;53.586;10.052;2023-03-01T00:26:21;32.42;;;18.17;;
47239;SDS011;32978;53.586;10.052;2023-03-01T00:31:20;26.35;;;15.48;;
47239;SDS011;32978;53.586;10.052;2023-03-01T00:36:18;25.15;;;15.70;;
47239;SDS011;32978;53.586;10.052;2023-03-01T00:41:16;25.88;;;15.27;;
47239;SDS011;32978;53.586;10.052;2023-03-01T00:46:14;29.23;;;15.65;;
47239;SDS011;32978;53.586;10.052;2023-03-01T00:51:14;26.48;;;14.63;;
47239;SDS011;32978;53.586;10.052;2023-03-01T00:56:13;26.13;;;15.15;;
47239;SDS011;32978;53.586;10.052;2023-03-01T01:01:21;25.25;;;15.88;;
47239;SDS011;32978;53.586;10.052;2023-03-01T01:06:20;34.58;;;15.30;;
47239;SDS011;32978;53.586;10.052;2023-03-01T01:11:21;26.33;;;14.88;;
47239;SDS011;32978;53.586;10.052;2023-03-01T01:16:21;27.60;;;16.77;;
47239;SDS011;32978;53.586;10.052;2023-03-01T01:21:19;26.85;;;16.40;;
47239;SDS011;32978;53.586;10.052;2023-03-01T01:26:21;25.77;;;15.25;;
47239;SDS011;32978;53.586;10.052;2023-03-01T01:31:19;23.58;;;16.27;;
47239;SDS011;32978;53.586;10.052;2023-03-01T01:36:19;27.65;;;15.35;;
47239;SDS011;32978;53.586;10.052;2023-03-01T01:41:17;26.85;;;15.88;;
47239;SDS011;32978;53.586;10.052;2023-03-01T01:46:22;27.58;;;16.38;;
47239;SDS011;32978;53.586;10.052;2023-03-01T01:51:28;33.22;;;17.83;;
47239;SDS011;32978;53.586;10.052;2023-03-01T01:56:34;29.02;;;15.25;;
47239;SDS011;32978;53.586;10.052;2023-03-01T02:01:35;29.77;;;16.00;;
47239;SDS011;32978;53.586;10.052;2023-03-01T02:06:33;25.83;;;15.05;;
47239;SDS011;32978;53.586;10.052;2023-03-01T02:11:33;18.13;;;12.70;;
47239;SDS011;32978;53.586;10.052;2023-03-01T02:16:30;25.92;;;15.25;;
47239;SDS011;32978;53.586;10.052;2023-03-01T02:26:46;28.90;;;15.85;;
47239;SDS011;32978;53.586;10.052;2023-03-01T02:31:46;27.48;;;14.88;;
47239;SDS011;32978;53.586;10.052;2023-03-01T02:36:47;27.58;;;14.80;;
47239;SDS011;32978;53.586;10.052;2023-03-01T02:41:48;23.90;;;15.00;;
47239;SDS011;32978;53.586;10.052;2023-03-01T02:46:48;25.50;;;14.68;;
47239;SDS011;32978;53.586;10.052;2023-03-01T02:57:20;25.83;;;14.18;;
47239;SDS011;32978;53.586;10.052;2023-03-01T03:02:19;23.55;;;14.15;;
47239;SDS011;32978;53.586;10.052;2023-03-01T03:07:32;22.42;;;13.85;;
47239;SDS011;32978;53.586;10.052;2023-03-01T03:12:30;25.10;;;15.23;;
47239;SDS011;32978;53.586;10.052;2023-03-01T03:17:26;23.23;;;14.63;;
47239;SDS011;32978;53.586;10.052;2023-03-01T03:22:23;32.30;;;14.63;;
47239;SDS011;32978;53.586;10.052;2023-03-01T03:27:19;25.08;;;14.07;;
47239;SDS011;32978;53.586;10.052;2023-03-01T03:32:16;25.30;;;14.52;;
47239;SDS011;32978;53.586;10.052;2023-03-01T03:37:12;23.73;;;13.45;;
47239;SDS011;32978;53.586;10.052;2023-03-01T03:42:28;26.13;;;15.43;;
47239;SDS011;32978;53.586;10.052;2023-03-01T03:47:25;21.08;;;14.10;;
47239;SDS011;32978;53.586;10.052;2023-03-01T03:52:21;23.77;;;12.35;;
47239;SDS011;32978;53.586;10.052;2023-03-01T03:57:18;22.88;;;12.15;;
47239;SDS011;32978;53.586;10.052;2023-03-01T04:02:14;20.80;;;12.43;;
47239;SDS011;32978;53.586;10.052;2023-03-01T04:07:18;20.95;;;11.55;;
47239;SDS011;32978;53.586;10.052;2023-03-01T04:12:14;21.77;;;10.57;;
47239;SDS011;32978;53.586;10.052;2023-03-01T04:17:16;14.50;;;10.07;;
47239;SDS011;32978;53.586;10.052;2023-03-01T04:22:12;13.70;;;10.30;;
47239;SDS011;32978;53.586;10.052;2023-03-01T04:27:13;16.77;;;10.52;;
47239;SDS011;32978;53.586;10.052;2023-03-01T04:32:09;16.15;;;10.57;;
47239;SDS011;32978;53.586;10.052;2023-03-01T04:37:06;16.58;;;9.68;;
47239;SDS011;32978;53.586;10.052;2023-03-01T04:42:03;15.30;;;10.25;;
47239;SDS011;32978;53.586;10.052;2023-03-01T04:46:59;12.23;;;8.95;;
47239;SDS011;32978;53.586;10.052;2023-03-01T04:51:56;10.65;;;9.13;;
47239;SDS011;32978;53.586;10.052;2023-03-01T04:56:55;13.82;;;8.93;;
47239;SDS011;32978;53.586;10.052;2023-03-01T05:01:52;17.40;;;8.95;;
47239;SDS011;32978;53.586;10.052;2023-03-01T05:06:51;14.07;;;9.00;;
47239;SDS011;32978;53.586;10.052;2023-03-01T05:11:49;16.38;;;9.65;;
47239;SDS011;32978;53.586;10.052;2023-03-01T05:16:47;9.75;;;7.82;;
47239;SDS011;32978;53.586;10.052;2023-03-01T05:21:44;9.93;;;8.07;;
47239;SDS011;32978;53.586;10.052;2023-03-01T05:26:58;11.60;;;8.00;;
47239;SDS011;32978;53.586;10.052;2023-03-01T05:31:56;9.98;;;8.60;;
47239;SDS011;32978;53.586;10.052;2023-03-01T05:36:54;12.80;;;8.38;;
47239;SDS011;32978;53.586;10.052;2023-03-01T05:41:51;14.48;;;9.48;;
47239;SDS011;32978;53.586;10.052;2023-03-01T05:46:53;12.90;;;8.63;;
47239;SDS011;32978;53.586;10.052;2023-03-01T05:51:50;13.80;;;9.40;;
47239;SDS011;32978;53.586;10.052;2023-03-01T05:56:48;12.68;;;8.88;;
47239;SDS011;32978;53.586;10.052;2023-03-01T06:01:44;11.50;;;9.57;;
47239;SDS011;32978;53.586;10.052;2023-03-01T06:06:41;11.60;;;10.40;;
47239;SDS011;32978;53.586;10.052;2023-03-01T06:11:37;14.82;;;11.15;;
47239;SDS011;32978;53.586;10.052;2023-03-01T06:16:34;15.13;;;10.15;;
47239;SDS011;32978;53.586;10.052;2023-03-01T06:21:30;12.98;;;10.80;;
47239;SDS011;32978;53.586;10.052;2023-03-01T06:26:27;17.13;;;10.90;;
47239;SDS011;32978;53.586;10.052;2023-03-01T06:31:24;13.55;;;10.70;;
47239;SDS011;32978;53.586;10.052;2023-03-01T06:36:20;14.45;;;10.52;;
47239;SDS011;32978;53.586;10.052;2023-03-01T06:41:18;14.73;;;10.75;;
47239;SDS011;32978;53.586;10.052;2023-03-01T06:46:14;18.70;;;11.38;;
47239;SDS011;32978;53.586;10.052;2023-03-01T06:51:11;13.30;;;10.10;;
47239;SDS011;32978;53.586;10.052;2023-03-01T06:56:07;13.82;;;9.80;;
47239;SDS011;32978;53.586;10.052;2023-03-01T07:01:07;13.50;;;9.52;;
47239;SDS011;32978;53.586;10.052;2023-03-01T07:06:04;13.23;;;9.40;;
47239;SDS011;32978;53.586;10.052;2023-03-01T07:11:01;17.95;;;9.82;;
47239;SDS011;32978;53.586;10.052;2023-03-01T07:15:59;9.90;;;8.90;;
47239;SDS011;32978;53.586;10.052;2023-03-01T07:20:56;12.82;;;10.20;;
47239;SDS011;32978;53.586;10.052;2023-03-01T07:25:52;15.23;;;9.05;;
47239;SDS011;32978;53.586;10.052;2023-03-01T07:30:50;13.05;;;9.60;;
47239;SDS011;32978;53.586;10.052;2023-03-01T07:35:46;12.38;;;10.02;;
47239;SDS011;32978;53.586;10.052;2023-03-01T07:40:43;17.10;;;11.75;;
47239;SDS011;32978;53.586;10.052;2023-03-01T07:45:39;14.45;;;11.82;;
47239;SDS011;32978;53.586;10.052;2023-03-01T07:50:35;19.17;;;12.10;;
47239;SDS011;32978;53.586;10.052;2023-03-01T07:55:32;15.02;;;11.88;;
47239;SDS011;32978;53.586;10.052;2023-03-01T08:00:28;21.73;;;12.35;;
47239;SDS011;32978;53.586;10.052;2023-03-01T08:05:25;19.00;;;13.68;;
47239;SDS011;32978;53.586;10.052;2023-03-01T08:10:21;18.27;;;13.98;;
47239;SDS011;32978;53.586;10.052;2023-03-01T08:15:18;18.63;;;13.30;;
47239;SDS011;32978;53.586;10.052;2023-03-01T08:20:15;15.93;;;12.90;;
47239;SDS011;32978;53.586;10.052;2023-03-01T08:25:15;18.45;;;12.02;;
47239;SDS011;32978;53.586;10.052;2023-03-01T08:30:11;16.75;;;13.07;;
47239;SDS011;32978;53.586;10.052;2023-03-01T08:35:08;17.27;;;13.30;;
47239;SDS011;32978;53.586;10.052;2023-03-01T08:40:05;14.65;;;11.65;;
47239;SDS011;32978;53.586;10.052;2023-03-01T08:45:06;14.65;;;11.60;;
47239;SDS011;32978;53.586;10.052;2023-03-01T08:50:03;20.60;;;12.55;;
47239;SDS011;32978;53.586;10.052;2023-03-01T08:55:00;19.05;;;13.35;;
47239;SDS011;32978;53.586;10.052;2023-03-01T08:59:58;17.05;;;13.10;;
47239;SDS011;32978;53.586;10.052;2023-03-01T09:04:54;18.25;;;13.60;;
47239;SDS011;32978;53.586;10.052;2023-03-01T09:09:51;22.38;;;13.35;;
47239;SDS011;32978;53.586;10.052;2023-03-01T09:14:49;19.80;;;13.82;;
47239;SDS011;32978;53.586;10.052;2023-03-01T09:19:45;18.83;;;14.10;;
47239;SDS011;32978;53.586;10.052;2023-03-01T09:24:42;19.00;;;13.55;;
47239;SDS011;32978;53.586;10.052;2023-03-01T09:29:38;19.25;;;14.57;;
47239;SDS011;32978;53.586;10.052;2023-03-01T09:34:36;19.30;;;13.93;;
47239;SDS011;32978;53.586;10.052;2023-03-01T09:39:52;19.08;;;14.27;;
47239;SDS011;32978;53.586;10.052;2023-03-01T09:44:54;20.15;;;15.10;;
47239;SDS011;32978;53.586;10.052;2023-03-01T09:50:17;20.92;;;15.13;;
47239;SDS011;32978;53.586;10.052;2023-03-01T09:55:37;20.50;;;13.93;;
47239;SDS011;32978;53.586;10.052;2023-03-01T10:00:43;19.35;;;13.38;;
47239;SDS011;32978;53.586;10.052;2023-03-01T10:10:48;19.20;;;13.40;;
47239;SDS011;32978;53.586;10.052;2023-03-01T10:15:48;19.05;;;14.52;;
47239;SDS011;32978;53.586;10.052;2023-03-01T10:21:14;15.00;;;12.68;;
47239;SDS011;32978;53.586;10.052;2023-03-01T10:31:19;19.00;;;13.88;;
47239;SDS011;32978;53.586;10.052;2023-03-01T10:36:19;16.75;;;13.13;;
47239;SDS011;32978;53.586;10.052;2023-03-01T10:41:15;16.73;;;12.90;;
47239;SDS011;32978;53.586;10.052;2023-03-01T10:46:22;15.95;;;12.80;;
47239;SDS011;32978;53.586;10.052;2023-03-01T10:51:27;19.48;;;14.18;;
47239;SDS011;32978;53.586;10.052;2023-03-01T10:56:24;14.90;;;12.20;;
47239;SDS011;32978;53.586;10.052;2023-03-01T11:06:23;17.63;;;13.05;;
47239;SDS011;32978;53.586;10.052;2023-03-01T11:16:28;15.52;;;13.05;;
47239;SDS011;32978;53.586;10.052;2023-03-01T11:21:25;16.30;;;12.93;;
47239;SDS011;32978;53.586;10.052;2023-03-01T11:26:25;14.43;;;12.48;;
47239;SDS011;32978;53.586;10.052;2023-03-01T11:31:25;19.27;;;12.05;;
47239;SDS011;32978;53.586;10.052;2023-03-01T11:41:52;16.48;;;12.40;;
47239;SDS011;32978;53.586;10.052;2023-03-01T11:47:24;15.60;;;12.93;;
47239;SDS011;32978;53.586;10.052;2023-03-01T12:03:22;16.15;;;11.32;;
47239;SDS011;32978;53.586;10.052;2023-03-01T12:08:31;16.33;;;11.73;;
47239;SDS011;32978;53.586;10.052;2023-03-01T12:18:58;11.95;;;10.65;;
47239;SDS011;32978;53.586;10.052;2023-03-01T12:35:21;10.90;;;9.90;;
47239;SDS011;32978;53.586;10.052;2023-03-01T12:50:58;12.50;;;11.20;;
47239;SDS011;32978;53.586;10.052;2023-03-01T12:56:01;11.68;;;10.48;;
47239;SDS011;32978;53.586;10.052;2023-03-01T13:01:16;12.85;;;11.50;;
47239;SDS011;32978;53.586;10.052;2023-03-01T13:06:30;11.55;;;9.88;;
47239;SDS011;32978;53.586;10.052;2023-03-01T13:11:41;12.15;;;10.52;;
47239;SDS011;32978;53.586;10.052;2023-03-01T13:16:40;12.52;;;10.90;;
47239;SDS011;32978;53.586;10.052;2023-03-01T13:21:46;11.35;;;10.15;;
47239;SDS011;32978;53.586;10.052;2023-03-01T13:32:02;13.23;;;11.77;;
47239;SDS011;32978;53.586;10.052;2023-03-01T13:37:19;12.10;;;10.43;;
47239;SDS011;32978;53.586;10.052;2023-03-01T13:47:33;11.90;;;10.23;;
47239;SDS011;32978;53.586;10.052;2023-03-01T13:52:52;10.85;;;9.85;;
47239;SDS011;32978;53.586;10.052;2023-03-01T13:57:54;10.27;;;9.20;;
47239;SDS011;32978;53.586;10.052;2023-03-01T14:03:04;11.77;;;8.82;;
47239;SDS011;32978;53.586;10.052;2023-03-01T14:08:19;11.88;;;10.65;;
47239;SDS011;32978;53.586;10.052;2023-03-01T14:13:33;10.00;;;9.00;;
47239;SDS011;32978;53.586;10.052;2023-03-01T14:24:29;10.23;;;9.23;;
47239;SDS011;32978;53.586;10.052;2023-03-01T14:29:35;9.40;;;8.23;;
47239;SDS011;32978;53.586;10.052;2023-03-01T14:34:33;11.00;;;9.02;;
47239;SDS011;32978;53.586;10.052;2023-03-01T14:39:30;9.48;;;8.60;;
47239;SDS011;32978;53.586;10.052;2023-03-01T14:44:28;9.88;;;8.45;;
47239;SDS011;32978;53.586;10.052;2023-03-01T14:49:26;9.55;;;8.65;;
47239;SDS011;32978;53.586;10.052;2023-03-01T14:54:28;9.32;;;8.43;;
47239;SDS011;32978;53.586;10.052;2023-03-01T14:59:33;8.07;;;7.28;;
47239;SDS011;32978;53.586;10.052;2023-03-01T15:04:30;8.57;;;7.68;;
47239;SDS011;32978;53.586;10.052;2023-03-01T15:09:30;13.45;;;8.27;;
47239;SDS011;32978;53.586;10.052;2023-03-01T15:14:41;8.73;;;7.80;;
47239;SDS011;32978;53.586;10.052;2023-03-01T15:19:47;8.38;;;7.47;;
47239;SDS011;32978;53.586;10.052;2023-03-01T15:24:46;8.55;;;7.75;;
47239;SDS011;32978;53.586;10.052;2023-03-01T15:29:48;8.02;;;7.22;;
47239;SDS011;32978;53.586;10.052;2023-03-01T15:34:50;7.65;;;6.90;;
47239;SDS011;32978;53.586;10.052;2023-03-01T15:39:54;7.93;;;6.88;;
47239;SDS011;32978;53.586;10.052;2023-03-01T15:45:06;9.13;;;7.47;;
47239;SDS011;32978;53.586;10.052;2023-03-01T15:50:04;9.02;;;7.20;;
47239;SDS011;32978;53.586;10.052;2023-03-01T15:55:16;8.70;;;7.80;;
47239;SDS011;32978;53.586;10.052;2023-03-01T16:00:15;11.50;;;7.20;;
47239;SDS011;32978;53.586;10.052;2023-03-01T16:05:18;8.90;;;7.82;;
47239;SDS011;32978;53.586;10.052;2023-03-01T16:10:19;9.57;;;7.40;;
47239;SDS011;32978;53.586;10.052;2023-03-01T16:15:26;10.82;;;8.55;;
47239;SDS011;32978;53.586;10.052;2023-03-01T16:20:28;9.77;;;8.77;;
47239;SDS011;32978;53.586;10.052;2023-03-01T16:25:29;14.10;;;8.70;;
47239;SDS011;32978;53.586;10.052;2023-03-01T16:30:26;11.88;;;9.50;;
47239;SDS011;32978;53.586;10.052;2023-03-01T16:35:22;13.68;;;9.73;;
47239;SDS011;32978;53.586;10.052;2023-03-01T16:40:21;11.07;;;8.77;;
47239;SDS011;32978;53.586;10.052;2023-03-01T16:45:20;14.15;;;10.07;;
47239;SDS011;32978;53.586;10.052;2023-03-01T16:50:20;16.50;;;11.10;;
47239;SDS011;32978;53.586;10.052;2023-03-01T16:55:17;17.50;;;11.48;;
47239;SDS011;32978;53.586;10.052;2023-03-01T17:00:14;16.95;;;13.27;;
47239;SDS011;32978;53.586;10.052;2023-03-01T17:05:10;15.85;;;12.38;;
47239;SDS011;32978;53.586;10.052;2023-03-01T17:10:08;15.23;;;10.60;;
47239;SDS011;32978;53.586;10.052;2023-03-01T17:15:07;13.55;;;10.77;;
47239;SDS011;32978;53.586;10.052;2023-03-01T17:20:04;13.70;;;11.77;;
47239;SDS011;32978;53.586;10.052;2023-03-01T17:25:01;11.82;;;9.77;;
47239;SDS011;32978;53.586;10.052;2023-03-01T17:29:58;10.65;;;9.55;;
47239;SDS011;32978;53.586;10.052;2023-03-01T17:34:54;11.18;;;9.95;;
47239;SDS011;32978;53.586;10.052;2023-03-01T17:39:51;12.50;;;10.27;;
47239;SDS011;32978;53.586;10.052;2023-03-01T17:44:47;11.93;;;10.63;;
47239;SDS011;32978;53.586;10.052;2023-03-01T17:49:44;12.57;;;10.60;;
47239;SDS011;32978;53.586;10.052;2023-03-01T17:54:40;12.50;;;11.20;;
47239;SDS011;32978;53.586;10.052;2023-03-01T17:59:37;13.80;;;11.98;;
47239;SDS011;32978;53.586;10.052;2023-03-01T18:04:33;13.75;;;11.48;;
47239;SDS011;32978;53.586;10.052;2023-03-01T18:09:31;13.30;;;11.63;;
47239;SDS011;32978;53.586;10.052;2023-03-01T18:14:27;14.65;;;11.52;;
47239;SDS011;32978;53.586;10.052;2023-03-01T18:19:28;16.52;;;13.10;;
47239;SDS011;32978;53.586;10.052;2023-03-01T18:24:25;14.60;;;12.70;;
47239;SDS011;32978;53.586;10.052;2023-03-01T18:29:22;16.92;;;14.00;;
47239;SDS011;32978;53.586;10.052;2023-03-01T18:34:18;17.63;;;13.95;;
47239;SDS011;32978;53.586;10.052;2023-03-01T18:39:14;20.08;;;15.82;;
47239;SDS011;32978;53.586;10.052;2023-03-01T18:44:12;22.40;;;17.40;;
47239;SDS011;32978;53.586;10.052;2023-03-01T18:49:09;18.02;;;15.30;;
47239;SDS011;32978;53.586;10.052;2023-03-01T18:54:05;24.50;;;19.15;;
47239;SDS011;32978;53.586;10.052;2023-03-01T18:59:02;21.40;;;16.98;;
47239;SDS011;32978;53.586;10.052;2023-03-01T19:03:59;26.45;;;17.50;;
47239;SDS011;32978;53.586;10.052;2023-03-01T19:08:56;28.35;;;20.60;;
47239;SDS011;32978;53.586;10.052;2023-03-01T19:13:53;27.08;;;19.77;;
47239;SDS011;32978;53.586;10.052;2023-03-01T19:18:49;27.40;;;20.17;;
47239;SDS011;32978;53.586;10.052;2023-03-01T19:23:46;27.77;;;19.42;;
47239;SDS011;32978;53.586;10.052;2023-03-01T19:28:44;26.38;;;19.38;;
47239;SDS011;32978;53.586;10.052;2023-03-01T19:33:41;26.42;;;19.83;;
47239;SDS011;32978;53.586;10.052;2023-03-01T19:38:38;30.90;;;22.10;;
47239;SDS011;32978;53.586;10.052;2023-03-01T19:43:36;26.90;;;19.83;;
47239;SDS011;32978;53.586;10.052;2023-03-01T19:48:33;28.85;;;20.02;;
47239;SDS011;32978;53.586;10.052;2023-03-01T19:53:30;27.05;;;19.33;;
47239;SDS011;32978;53.586;10.052;2023-03-01T19:58:27;28.83;;;21.35;;
47239;SDS011;32978;53.586;10.052;2023-03-01T20:03:25;27.48;;;19.55;;
47239;SDS011;32978;53.586;10.052;2023-03-01T20:08:22;26.40;;;19.45;;
47239;SDS011;32978;53.586;10.052;2023-03-01T20:13:19;26.40;;;19.77;;
47239;SDS011;32978;53.586;10.052;2023-03-01T20:18:16;25.83;;;18.48;;
47239;SDS011;32978;53.586;10.052;2023-03-01T20:23:12;26.48;;;18.95;;
47239;SDS011;32978;53.586;10.052;2023-03-01T20:28:09;24.60;;;19.40;;
47239;SDS011;32978;53.586;10.052;2023-03-01T20:33:05;27.38;;;20.55;;
47239;SDS011;32978;53.586;10.052;2023-03-01T20:38:02;29.55;;;22.08;;
47239;SDS011;32978;53.586;10.052;2023-03-01T20:42:59;26.20;;;19.05;;
47239;SDS011;32978;53.586;10.052;2023-03-01T20:47:55;27.13;;;20.63;;
47239;SDS011;32978;53.586;10.052;2023-03-01T20:52:52;28.25;;;20.75;;
47239;SDS011;32978;53.586;10.052;2023-03-01T20:57:48;24.90;;;18.67;;
47239;SDS011;32978;53.586;10.052;2023-03-01T21:02:45;29.10;;;20.25;;
47239;SDS011;32978;53.586;10.052;2023-03-01T21:07:41;27.73;;;19.92;;
47239;SDS011;32978;53.586;10.052;2023-03-01T21:12:38;27.13;;;19.58;;
47239;SDS011;32978;53.586;10.052;2023-03-01T21:17:34;34.95;;;23.55;;
47239;SDS011;32978;53.586;10.052;2023-03-01T21:22:30;31.30;;;20.35;;
47239;SDS011;32978;53.586;10.052;2023-03-01T21:27:30;27.77;;;18.70;;
47239;SDS011;32978;53.586;10.052;2023-03-01T21:32:31;27.90;;;19.45;;
47239;SDS011;32978;53.586;10.052;2023-03-01T21:37:28;26.77;;;19.58;;
47239;SDS011;32978;53.586;10.052;2023-03-01T21:42:24;27.92;;;19.80;;
47239;SDS011;32978;53.586;10.052;2023-03-01T21:47:21;26.77;;;18.70;;
47239;SDS011;32978;53.586;10.052;2023-03-01T21:52:17;25.25;;;19.00;;
47239;SDS011;32978;53.586;10.052;2023-03-01T21:57:13;25.52;;;18.65;;
47239;SDS011;32978;53.586;10.052;2023-03-01T22:02:11;31.38;;;21.48;;
47239;SDS011;32978;53.586;10.052;2023-03-01T22:07:09;29.02;;;20.33;;
47239;SDS011;32978;53.586;10.052;2023-03-01T22:12:06;26.83;;;19.08;;
47239;SDS011;32978;53.586;10.052;2023-03-01T22:17:02;26.52;;;17.58;;
47239;SDS011;32978;53.586;10.052;2023-03-01T22:21:59;26.35;;;17.85;;
47239;SDS011;32978;53.586;10.052;2023-03-01T22:26:55;27.25;;;20.15;;
47239;SDS011;32978;53.586;10.052;2023-03-01T22:31:52;25.42;;;17.33;;
47239;SDS011;32978;53.586;10.052;2023-03-01T22:36:49;24.75;;;18.70;;
47239;SDS011;32978;53.586;10.052;2023-03-01T22:41:46;28.08;;;18.75;;
47239;SDS011;32978;53.586;10.052;2023-03-01T22:46:44;31.17;;;18.98;;
47239;SDS011;32978;53.586;10.052;2023-03-01T22:51:43;23.40;;;17.50;;
47239;SDS011;32978;53.586;10.052;2023-03-01T22:56:42;27.35;;;19.60;;
47239;SDS011;32978;53.586;10.052;2023-03-01T23:01:40;26.40;;;17.67;;
47239;SDS011;32978;53.586;10.052;2023-03-01T23:06:37;23.45;;;17.15;;
47239;SDS011;32978;53.586;10.052;2023-03-01T23:11:47;28.63;;;20.23;;
47239;SDS011;32978;53.586;10.052;2023-03-01T23:16:44;28.63;;;18.00;;
47239;SDS011;32978;53.586;10.052;2023-03-01T23:21:41;26.48;;;18.63;;
47239;SDS011;32978;53.586;10.052;2023-03-01T23:26:41;22.55;;;17.95;;
47239;SDS011;32978;53.586;10.052;2023-03-01T23:31:38;21.60;;;16.92;;
47239;SDS011;32978;53.586;10.052;2023-03-01T23:36:35;23.40;;;17.67;;
47239;SDS011;32978;53.586;10.052;2023-03-01T23:41:32;22.90;;;17.90;;
47239;SDS011;32978;53.586;10.052;2023-03-01T23:46:30;21.05;;;16.67;;
47239;SDS011;32978;53.586;10.052;2023-03-01T23:51:29;22.17;;;17.88;;
47239;SDS011;32978;53.586;10.052;2023-03-01T23:56:27;17.60;;;14.70;;
